Time;durP1;ratioP1;P1;durP2;ratioP2;P2;SDS_P1;SDS_P2;PMS_P1;PMS_P2;Temp;Humidity;BMP_temperature;BMP_pressure;BME280_temperature;BME280_humidity;BME280_pressure;Samples;Min_cycle;Max_cycle;Signal;HPM_P1;HPM_P2
2024/04/15 00:01:12;;;;;;;0.10;0.10;;;;;;;12.48;52.38;101602.16;5357076;26;19997;-86
2024/04/15 00:03:38;;;;;;;0.00;0.00;;;;;;;12.48;51.70;101607.47;5371341;26;19989;-86
2024/04/15 00:06:06;;;;;;;0.10;0.10;;;;;;;12.45;51.65;101597.75;5342818;26;20016;-85
2024/04/15 00:08:32;;;;;;;0.10;0.10;;;;;;;12.44;51.95;101600.44;5341446;26;19997;-85
2024/04/15 00:11:02;;;;;;;0.08;0.08;;;;;;;12.45;51.01;101608.38;5351928;26;20069;-85
2024/04/15 00:13:29;;;;;;;0.10;0.10;;;;;;;12.42;51.68;101602.25;5348149;26;20336;-85
2024/04/15 00:15:56;;;;;;;0.00;0.00;;;;;;;12.36;53.05;101589.03;5347513;26;19992;-85
2024/04/15 00:18:23;;;;;;;0.10;0.10;;;;;;;12.34;53.41;101585.56;5346963;26;20000;-85
2024/04/15 00:20:55;;;;;;;0.10;0.10;;;;;;;12.31;53.10;101578.47;5346149;26;19998;-86
2024/04/15 00:23:22;;;;;;;0.10;0.10;;;;;;;12.28;53.31;101568.78;5343026;26;20040;-85
2024/04/15 00:25:48;;;;;;;0.10;0.10;;;;;;;12.25;53.71;101552.91;5345742;26;19997;-85
2024/04/15 00:28:14;;;;;;;0.05;0.05;;;;;;;12.19;53.30;101563.63;5346544;26;20008;-85
2024/04/15 00:30:40;;;;;;;0.10;0.10;;;;;;;12.19;53.73;101546.81;5341900;26;19996;-85
2024/04/15 00:33:06;;;;;;;0.03;0.03;;;;;;;12.18;54.06;101545.91;5338297;26;20005;-85
2024/04/15 00:35:32;;;;;;;0.10;0.10;;;;;;;12.21;52.79;101543.22;5335078;26;19997;-86
2024/04/15 00:37:59;;;;;;;0.00;0.00;;;;;;;12.21;54.63;101534.38;5344329;26;20015;-86
2024/04/15 00:40:25;;;;;;;0.10;0.10;;;;;;;12.28;54.92;101520.94;5339579;26;20009;-86
2024/04/15 00:42:55;;;;;;;0.08;0.08;;;;;;;12.30;53.68;101516.50;5339641;26;20021;-85
2024/04/15 00:45:30;;;;;;;0.10;0.10;;;;;;;12.40;53.27;101514.56;5344952;26;20008;-86
2024/04/15 00:47:58;;;;;;;0.08;0.08;;;;;;;12.39;54.55;101498.66;5341376;26;20318;-85
2024/04/15 00:50:27;;;;;;;28.92;1.00;;;;;;;12.39;55.03;101501.31;5346421;26;20004;-87
2024/04/15 00:52:55;;;;;;;0.00;0.00;;;;;;;12.40;54.45;101509.25;5342205;26;20005;-87
2024/04/15 00:55:24;;;;;;;0.00;0.00;;;;;;;12.43;54.25;101495.91;5344205;26;20001;-86
2024/04/15 00:57:53;;;;;;;0.05;0.05;;;;;;;12.48;54.17;101489.66;5341733;26;20066;-86
2024/04/15 01:00:20;;;;;;;0.10;0.10;;;;;;;12.50;55.09;101496.69;5337834;26;20013;-86
2024/04/15 01:02:48;;;;;;;0.10;0.10;;;;;;;12.49;54.04;101499.38;5341842;26;20601;-85
2024/04/15 01:05:14;;;;;;;0.03;0.03;;;;;;;12.50;54.28;101486.06;5344149;26;20004;-86
2024/04/15 01:07:40;;;;;;;0.00;0.00;;;;;;;12.50;55.76;101487.81;5340357;26;19993;-86
2024/04/15 01:10:07;;;;;;;0.10;0.10;;;;;;;12.51;55.02;101479.84;5340606;26;20012;-85
2024/04/15 01:12:36;;;;;;;0.10;0.10;;;;;;;12.50;55.28;101483.41;5345861;26;20005;-86
2024/04/15 01:15:03;;;;;;;0.13;0.13;;;;;;;12.53;54.59;101478.00;5340334;26;20000;-85
2024/04/15 01:17:29;;;;;;;0.10;0.10;;;;;;;12.48;55.37;101468.38;5343003;26;20033;-84
2024/04/15 01:20:00;;;;;;;0.10;0.10;;;;;;;12.53;56.15;101461.19;5352759;26;20001;-84
2024/04/15 01:22:34;;;;;;;0.10;0.10;;;;;;;12.52;56.20;101462.97;5361960;26;20354;-86
2024/04/15 01:25:01;;;;;;;0.10;0.10;;;;;;;12.54;55.63;101463.81;5343798;26;19993;-86
2024/04/15 01:27:28;;;;;;;0.10;0.10;;;;;;;12.56;55.52;101453.16;5346552;26;20498;-86
2024/04/15 01:29:55;;;;;;;0.00;0.00;;;;;;;12.52;55.96;101455.00;5345115;26;20016;-86
2024/04/15 01:32:21;;;;;;;0.10;0.10;;;;;;;12.57;55.63;101458.47;5342839;26;20001;-85
2024/04/15 01:34:47;;;;;;;0.00;0.00;;;;;;;12.50;56.50;101451.50;5341969;26;20008;-85
2024/04/15 01:37:13;;;;;;;0.10;0.10;;;;;;;12.55;55.19;101448.78;5346007;26;20458;-86
2024/04/15 01:39:39;;;;;;;0.10;0.10;;;;;;;12.57;55.11;101447.84;5345869;26;19997;-86
2024/04/15 01:42:06;;;;;;;0.00;0.00;;;;;;;12.58;55.86;101443.38;5345110;26;20325;-86
2024/04/15 01:44:32;;;;;;;0.10;0.10;;;;;;;12.57;55.71;101431.88;5345603;26;19997;-86
2024/04/15 01:46:58;;;;;;;0.00;0.00;;;;;;;12.58;55.50;101425.63;5346543;26;20463;-86
2024/04/15 01:49:25;;;;;;;0.00;0.00;;;;;;;12.58;55.63;101428.28;5347398;26;20328;-86
2024/04/15 01:51:51;;;;;;;0.00;0.00;;;;;;;12.59;55.45;101430.06;5346257;26;20059;-85
2024/04/15 01:54:17;;;;;;;0.10;0.10;;;;;;;12.58;56.20;101420.31;5364137;26;20011;-85
2024/04/15 01:56:43;;;;;;;0.10;0.10;;;;;;;12.48;56.88;101421.41;5365238;26;20048;-86
2024/04/15 01:59:10;;;;;;;0.30;0.30;;;;;;;12.52;56.21;101420.44;5365583;26;19993;-85
2024/04/15 02:01:36;;;;;;;0.63;0.63;;;;;;;12.42;57.03;101410.91;5362988;26;20008;-86
2024/04/15 02:04:02;;;;;;;0.10;0.10;;;;;;;12.36;57.27;101408.34;5363411;26;20001;-86
2024/04/15 02:06:28;;;;;;;0.00;0.00;;;;;;;12.33;56.52;101405.75;5358089;26;19996;-86
2024/04/15 02:08:54;;;;;;;0.10;0.10;;;;;;;12.30;56.19;101398.72;5354885;26;19989;-86
2024/04/15 02:11:21;;;;;;;0.00;0.00;;;;;;;12.28;56.24;101398.72;5360888;26;20000;-85
2024/04/15 02:13:47;;;;;;;0.13;0.13;;;;;;;12.21;56.75;101390.91;5363672;26;20021;-86
2024/04/15 02:16:13;;;;;;;0.38;0.38;;;;;;;12.17;57.48;101390.06;5357646;26;20452;-84
2024/04/15 02:18:39;;;;;;;0.10;0.10;;;;;;;12.15;57.31;101386.59;5361292;26;19997;-84
2024/04/15 02:21:06;;;;;;;0.10;0.10;;;;;;;12.15;56.99;101391.91;5360675;26;20000;-86
2024/04/15 02:23:33;;;;;;;0.10;0.10;;;;;;;12.14;57.07;101391.00;5359593;26;20008;-86
2024/04/15 02:25:59;;;;;;;0.05;0.05;;;;;;;12.13;57.25;101380.44;5354876;26;20051;-85
2024/04/15 02:28:25;;;;;;;0.55;0.55;;;;;;;12.11;57.57;101375.16;5355609;26;20005;-85
2024/04/15 02:30:51;;;;;;;0.10;0.10;;;;;;;12.12;57.85;101370.69;5356047;26;20007;-85
2024/04/15 02:33:17;;;;;;;0.10;0.10;;;;;;;12.14;57.41;101366.25;5351680;26;20007;-86
2024/04/15 02:35:44;;;;;;;0.10;0.10;;;;;;;12.09;58.74;101371.63;5365962;26;20004;-86
2024/04/15 02:38:11;;;;;;;0.40;0.40;;;;;;;12.12;57.99;101368.03;5367466;26;19996;-85
2024/04/15 02:40:37;;;;;;;0.10;0.10;;;;;;;12.13;58.34;101368.00;5359583;26;20012;-86
2024/04/15 02:43:03;;;;;;;0.10;0.10;;;;;;;12.18;58.74;101373.25;5362141;26;20009;-86
2024/04/15 02:45:29;;;;;;;0.10;0.10;;;;;;;12.21;58.23;101370.53;5362587;26;19989;-85
2024/04/15 02:47:59;;;;;;;0.00;0.00;;;;;;;12.23;58.86;101355.44;5363124;26;19997;-85
2024/04/15 02:50:25;;;;;;;0.00;0.00;;;;;;;12.25;59.46;101355.41;5362576;26;20012;-85
2024/04/15 02:52:52;;;;;;;0.10;0.10;;;;;;;12.27;59.75;101354.50;5360006;26;20005;-85
2024/04/15 02:55:18;;;;;;;0.10;0.10;;;;;;;12.31;59.43;101328.72;5351035;26;20838;-86
2024/04/15 02:57:44;;;;;;;0.10;0.10;;;;;;;12.32;58.84;101334.91;5346717;26;20016;-86
2024/04/15 03:00:10;;;;;;;0.10;0.10;;;;;;;12.35;59.16;101329.53;5347518;26;20075;-86
2024/04/15 03:02:37;;;;;;;0.00;0.00;;;;;;;12.35;60.35;101318.91;5337971;26;20001;-86
2024/04/15 03:05:03;;;;;;;0.10;0.10;;;;;;;12.42;59.53;101321.44;5344392;26;20356;-86
2024/04/15 03:07:29;;;;;;;0.10;0.10;;;;;;;12.42;60.02;101315.22;5344939;26;20064;-85
2024/04/15 03:09:55;;;;;;;0.32;0.32;;;;;;;12.40;60.46;101311.72;5341938;26;20013;-86
2024/04/15 03:12:22;;;;;;;0.10;0.10;;;;;;;12.46;59.09;101315.13;5344995;26;20005;-86
2024/04/15 03:14:48;;;;;;;0.10;0.10;;;;;;;12.45;59.98;101315.19;5344946;26;20480;-86
2024/04/15 03:17:15;;;;;;;0.10;0.10;;;;;;;12.48;59.63;101309.78;5345214;26;20044;-86
2024/04/15 03:19:41;;;;;;;0.10;0.10;;;;;;;12.50;60.06;101300.00;5352379;26;20012;-86
2024/04/15 03:22:08;;;;;;;0.10;0.10;;;;;;;12.53;59.33;101307.03;5351807;26;19997;-86
2024/04/15 03:24:35;;;;;;;0.10;0.10;;;;;;;12.54;59.48;101308.78;5349358;26;20032;-86
2024/04/15 03:27:02;;;;;;;0.10;0.10;;;;;;;12.52;60.30;101303.50;5347826;26;20001;-86
2024/04/15 03:29:28;;;;;;;0.05;0.05;;;;;;;12.51;60.72;101307.06;5334512;26;20005;-87
2024/04/15 03:31:55;;;;;;;0.00;0.00;;;;;;;12.45;60.94;101299.22;5347521;26;20435;-87
2024/04/15 03:34:21;;;;;;;0.10;0.10;;;;;;;12.42;60.94;101283.34;5346071;26;20087;-87
2024/04/15 03:36:47;;;;;;;0.10;0.10;;;;;;;12.33;61.60;101271.09;5347767;26;20036;-88
2024/04/15 03:39:13;;;;;;;0.00;0.00;;;;;;;12.23;62.86;101274.88;5347144;26;20005;-87
2024/04/15 03:41:39;;;;;;;0.03;0.03;;;;;;;12.21;60.86;101266.94;5347335;26;20012;-87
2024/04/15 03:44:05;;;;;;;0.10;0.10;;;;;;;12.15;61.59;101253.78;5346158;26;19997;-87
2024/04/15 03:46:32;;;;;;;2.92;1.20;;;;;;;12.11;61.09;101257.38;5333814;26;19997;-87
2024/04/15 03:48:59;;;;;;;0.10;0.10;;;;;;;12.08;62.98;101252.13;5347836;26;20000;-85
2024/04/15 03:51:26;;;;;;;0.35;0.35;;;;;;;12.08;63.41;101249.47;5344672;26;20001;-87
2024/04/15 03:53:52;;;;;;;0.10;0.10;;;;;;;12.05;61.58;101238.91;5337312;26;20010;-87
2024/04/15 03:56:18;;;;;;;0.10;0.10;;;;;;;12.04;62.58;101234.53;5369078;26;20048;-88
2024/04/15 03:58:44;;;;;;;0.10;0.10;;;;;;;12.02;62.94;101223.03;5368661;26;19993;-85
2024/04/15 04:01:10;;;;;;;0.00;0.00;;;;;;;12.01;61.89;101229.25;5352484;26;20032;-86
2024/04/15 04:03:37;;;;;;;0.10;0.10;;;;;;;11.98;63.60;101216.91;5345808;26;20038;-86
2024/04/15 04:06:03;;;;;;;0.10;0.10;;;;;;;11.97;64.55;101221.38;5337901;26;19998;-86
2024/04/15 04:08:29;;;;;;;0.73;0.73;;;;;;;11.94;63.20;101213.41;5343139;26;20016;-86
2024/04/15 04:10:55;;;;;;;0.10;0.10;;;;;;;11.90;63.64;101222.34;5346742;26;20040;-86
2024/04/15 04:13:21;;;;;;;0.00;0.00;;;;;;;11.86;65.45;101204.72;5346850;26;20008;-86
2024/04/15 04:15:47;;;;;;;0.08;0.08;;;;;;;11.87;63.29;101205.59;5347054;26;20092;-86
2024/04/15 04:18:14;;;;;;;0.00;0.00;;;;;;;11.81;65.04;101201.28;5346757;26;20037;-86
2024/04/15 04:20:40;;;;;;;0.20;0.20;;;;;;;11.83;64.30;101199.47;5346885;26;20058;-86
2024/04/15 04:23:06;;;;;;;0.10;0.10;;;;;;;11.82;65.13;101188.00;5342935;26;19997;-87
2024/04/15 04:25:32;;;;;;;0.10;0.10;;;;;;;11.85;64.32;101186.16;5330900;26;20007;-86
2024/04/15 04:27:58;;;;;;;0.10;0.10;;;;;;;11.87;64.21;101184.38;5346255;26;20012;-86
2024/04/15 04:30:24;;;;;;;0.10;0.10;;;;;;;11.86;64.12;101180.81;5345469;26;20031;-86
2024/04/15 04:32:52;;;;;;;0.08;0.08;;;;;;;11.84;64.59;101181.75;5346784;26;20042;-86
2024/04/15 04:35:18;;;;;;;0.10;0.10;;;;;;;11.86;63.48;101186.13;5346001;26;20001;-86
2024/04/15 04:37:45;;;;;;;0.32;0.32;;;;;;;11.79;64.77;101189.84;5346423;26;21880;-86
2024/04/15 04:40:11;;;;;;;0.00;0.00;;;;;;;11.76;63.49;101193.41;5340499;26;20512;-86
2024/04/15 04:42:41;;;;;;;0.10;0.10;;;;;;;11.69;64.43;101186.47;5346252;26;20001;-85
2024/04/15 04:45:07;;;;;;;0.00;0.00;;;;;;;11.67;64.40;101179.44;5345513;26;19993;-86
2024/04/15 04:47:34;;;;;;;0.20;0.20;;;;;;;11.61;64.85;101177.78;5344406;26;20677;-85
2024/04/15 04:50:00;;;;;;;0.10;0.10;;;;;;;11.61;64.34;101175.13;5345329;26;20510;-84
2024/04/15 04:52:26;;;;;;;0.10;0.10;;;;;;;11.47;63.52;101159.47;5345228;26;20085;-86
2024/04/15 04:54:52;;;;;;;0.20;0.20;;;;;;;11.46;63.82;101168.31;5344435;26;19993;-85
2024/04/15 04:57:18;;;;;;;0.10;0.10;;;;;;;11.47;62.95;101172.72;5345556;26;20103;-85
2024/04/15 04:59:51;;;;;;;0.00;0.00;;;;;;;11.43;63.13;101171.91;5341955;26;20336;-87
2024/04/15 05:02:17;;;;;;;0.10;0.10;;;;;;;11.38;62.77;101162.31;5345186;26;20016;-85
2024/04/15 05:04:44;;;;;;;0.10;0.10;;;;;;;11.33;62.64;101157.94;5334725;26;20078;-85
2024/04/15 05:07:10;;;;;;;0.10;0.10;;;;;;;11.32;62.96;101150.00;5346024;26;20844;-86
2024/04/15 05:09:36;;;;;;;0.10;0.10;;;;;;;11.26;64.50;101140.38;5342794;26;19997;-86
2024/04/15 05:12:02;;;;;;;0.10;0.10;;;;;;;11.31;63.63;101141.19;5351231;26;20009;-85
2024/04/15 05:14:28;;;;;;;0.10;0.10;;;;;;;11.30;65.03;101143.84;5358736;26;20001;-85
2024/04/15 05:16:54;;;;;;;0.00;0.00;;;;;;;11.37;64.24;101144.63;5355464;26;19999;-85
2024/04/15 05:19:20;;;;;;;0.10;0.10;;;;;;;11.42;64.38;101150.72;5342926;26;20000;-85
2024/04/15 05:21:47;;;;;;;0.30;0.30;;;;;;;11.45;64.58;101142.69;5346541;26;20051;-86
2024/04/15 05:24:13;;;;;;;0.10;0.10;;;;;;;11.40;65.06;101136.59;5346195;26;20008;-86
2024/04/15 05:26:39;;;;;;;0.10;0.10;;;;;;;11.38;64.53;101133.13;5346237;26;20001;-86
2024/04/15 05:29:05;;;;;;;0.10;0.10;;;;;;;11.36;64.11;101132.25;5346578;26;19997;-85
2024/04/15 05:31:31;;;;;;;0.85;0.85;;;;;;;11.38;64.28;101133.13;5346287;26;20013;-85
2024/04/15 05:33:57;;;;;;;0.10;0.10;;;;;;;11.38;64.45;101127.81;5346896;26;20008;-85
2024/04/15 05:36:23;;;;;;;0.00;0.00;;;;;;;11.35;64.44;101134.03;5351982;26;20013;-86
2024/04/15 05:38:49;;;;;;;0.00;0.00;;;;;;;11.44;63.63;101132.97;5347445;26;19993;-86
2024/04/15 05:41:16;;;;;;;0.00;0.00;;;;;;;11.29;63.92;101131.47;5343661;26;20012;-86
2024/04/15 05:43:42;;;;;;;0.10;0.10;;;;;;;11.41;63.87;101128.59;5334745;26;20013;-86
2024/04/15 05:46:10;;;;;;;0.10;0.10;;;;;;;11.45;63.51;101126.75;5345301;26;20011;-86
2024/04/15 05:48:36;;;;;;;0.10;0.10;;;;;;;11.50;63.57;101127.53;5345730;26;19997;-86
2024/04/15 05:51:03;;;;;;;0.10;0.10;;;;;;;11.46;63.53;101120.56;5345221;26;20705;-85
2024/04/15 05:53:29;;;;;;;0.00;0.00;;;;;;;11.39;63.59;101110.97;5344157;26;20012;-86
2024/04/15 05:55:57;;;;;;;0.25;0.25;;;;;;;11.43;64.01;101113.53;5344612;26;20008;-85
2024/04/15 05:58:23;;;;;;;0.10;0.10;;;;;;;11.39;63.79;101114.50;5349476;26;20472;-84
2024/04/15 06:00:49;;;;;;;0.10;0.10;;;;;;;11.47;63.79;101099.28;5343890;26;20001;-84
2024/04/15 06:03:15;;;;;;;0.10;0.10;;;;;;;11.47;63.79;101101.09;5345620;26;20005;-85
2024/04/15 06:05:41;;;;;;;0.10;0.10;;;;;;;11.49;63.34;101094.84;5351302;26;20001;-86
2024/04/15 06:08:08;;;;;;;0.10;0.10;;;;;;;11.51;63.37;101086.84;5349008;26;19997;-85
2024/04/15 06:10:34;;;;;;;0.10;0.10;;;;;;;11.40;63.52;101088.84;5342838;26;19992;-84
2024/04/15 06:13:00;;;;;;;0.10;0.10;;;;;;;11.45;63.70;101077.25;5344745;26;20008;-85
2024/04/15 06:15:26;;;;;;;0.10;0.10;;;;;;;11.52;63.33;101083.28;5330524;26;21708;-85
2024/04/15 06:17:53;;;;;;;0.00;0.00;;;;;;;11.54;63.46;101083.25;5337837;26;20324;-84
2024/04/15 06:20:19;;;;;;;0.10;0.10;;;;;;;11.56;63.11;101076.16;5335150;26;20171;-85
2024/04/15 06:22:45;;;;;;;0.38;0.38;;;;;;;11.58;63.49;101067.25;5342029;26;20021;-84
2024/04/15 06:25:11;;;;;;;0.10;0.10;;;;;;;11.76;63.23;101049.19;5342333;26;20743;-84
2024/04/15 06:27:37;;;;;;;0.17;0.17;;;;;;;11.86;63.00;101045.41;5354943;26;20035;-84
2024/04/15 06:30:05;;;;;;;0.10;0.10;;;;;;;11.92;62.67;101042.63;5365476;26;20004;-85
2024/04/15 06:32:32;;;;;;;0.20;0.20;;;;;;;12.01;61.96;101038.91;5352953;26;20056;-85
2024/04/15 06:34:58;;;;;;;1.13;0.63;;;;;;;12.16;61.94;101037.69;5343321;26;20405;-82
2024/04/15 06:37:24;;;;;;;0.10;0.10;;;;;;;12.16;61.94;101045.66;5344865;26;20001;-83
2024/04/15 06:39:50;;;;;;;0.10;0.10;;;;;;;12.24;61.56;101030.41;5345524;26;20005;-83
2024/04/15 06:42:16;;;;;;;0.10;0.10;;;;;;;12.33;61.56;101031.97;5345411;26;20344;-83
2024/04/15 06:44:42;;;;;;;0.03;0.03;;;;;;;12.38;60.73;101027.41;5344219;26;20001;-82
2024/04/15 06:47:11;;;;;;;0.00;0.00;;;;;;;12.47;61.04;101021.00;5344848;26;20039;-83
2024/04/15 06:49:37;;;;;;;0.10;0.10;;;;;;;12.46;60.42;101021.91;5345533;26;20346;-83
2024/04/15 06:52:03;;;;;;;0.00;0.00;;;;;;;12.41;60.28;101010.53;5347859;26;20009;-84
2024/04/15 06:54:30;;;;;;;0.10;0.10;;;;;;;12.44;59.99;101011.31;5345868;26;20123;-84
2024/04/15 06:56:56;;;;;;;0.10;0.10;;;;;;;12.53;59.92;100999.59;5345712;26;20016;-84
2024/04/15 06:59:22;;;;;;;0.10;0.10;;;;;;;12.55;60.27;101003.09;5345930;26;20029;-84
2024/04/15 07:01:48;;;;;;;1.60;1.50;;;;;;;12.49;60.05;100989.97;5348723;26;20015;-85
2024/04/15 07:04:15;;;;;;;0.10;0.10;;;;;;;12.47;60.24;100989.13;5349964;26;20013;-84
2024/04/15 07:06:41;;;;;;;0.10;0.10;;;;;;;12.46;60.46;100967.00;5345869;26;20408;-88
2024/04/15 07:09:07;;;;;;;0.10;0.10;;;;;;;12.45;59.93;100961.72;5348967;26;20004;-87
2024/04/15 07:11:34;;;;;;;0.10;0.10;;;;;;;12.46;59.90;100950.16;5347829;26;20040;-86
2024/04/15 07:14:00;;;;;;;0.10;0.10;;;;;;;12.61;60.35;100949.78;5348164;26;20005;-86
2024/04/15 07:16:26;;;;;;;0.10;0.10;;;;;;;12.58;60.26;100959.59;5353443;26;20001;-86
2024/04/15 07:18:52;;;;;;;0.32;0.32;;;;;;;12.60;59.90;100950.69;5350717;26;20600;-86
2024/04/15 07:21:21;;;;;;;0.20;0.20;;;;;;;12.59;59.57;100946.28;5347192;26;19998;-86
2024/04/15 07:23:47;;;;;;;4.07;1.88;;;;;;;12.65;59.78;100939.03;5349100;26;20016;-85
2024/04/15 07:26:14;;;;;;;0.10;0.10;;;;;;;12.70;59.71;100921.22;5346608;26;20002;-86
2024/04/15 07:28:40;;;;;;;1.17;1.17;;;;;;;12.63;59.79;100915.16;5336074;26;20341;-85
2024/04/15 07:31:06;;;;;;;0.10;0.10;;;;;;;12.66;60.00;100908.91;5352299;26;19997;-85
2024/04/15 07:33:32;;;;;;;0.10;0.10;;;;;;;12.61;59.33;100903.69;5351796;26;19993;-85
2024/04/15 07:36:00;;;;;;;0.10;0.10;;;;;;;12.64;58.96;100908.94;5351058;26;20005;-86
2024/04/15 07:38:26;;;;;;;0.10;0.10;;;;;;;12.69;58.90;100903.50;5357699;26;20060;-85
2024/04/15 07:40:54;;;;;;;0.10;0.10;;;;;;;12.71;58.94;100896.34;5353187;26;20020;-83
2024/04/15 07:43:20;;;;;;;0.50;0.50;;;;;;;12.76;58.62;100894.41;5357138;26;20000;-84
2024/04/15 07:45:46;;;;;;;0.10;0.10;;;;;;;12.81;58.67;100888.97;5371733;26;19993;-86
2024/04/15 07:48:14;;;;;;;0.10;0.10;;;;;;;12.86;58.58;100879.06;5371320;26;19992;-86
2024/04/15 07:50:41;;;;;;;0.05;0.05;;;;;;;12.74;58.59;100872.34;5343787;26;20016;-85
2024/04/15 07:53:08;;;;;;;0.10;0.10;;;;;;;12.79;58.37;100865.09;5349946;26;20020;-86
2024/04/15 07:55:34;;;;;;;0.00;0.00;;;;;;;12.74;57.62;100853.72;5354421;26;20007;-86
2024/04/15 07:58:00;;;;;;;0.10;0.10;;;;;;;12.79;58.19;100846.50;5355252;26;20340;-85
2024/04/15 08:00:26;;;;;;;0.10;0.10;;;;;;;12.86;58.14;100850.72;5381250;26;20020;-85
2024/04/15 08:02:55;;;;;;;0.10;0.10;;;;;;;12.76;58.51;100843.91;5347082;26;20012;-85
2024/04/15 08:05:21;;;;;;;0.10;0.10;;;;;;;12.89;58.13;100833.81;5355150;26;20021;-87
2024/04/15 08:07:51;;;;;;;0.10;0.10;;;;;;;12.87;58.25;100827.66;5355646;26;20467;-86
2024/04/15 08:10:17;;;;;;;0.10;0.10;;;;;;;12.84;58.32;100814.47;5343884;26;20409;-85
2024/04/15 08:12:44;;;;;;;0.00;0.00;;;;;;;12.91;58.14;100816.88;5346601;26;20433;-84
2024/04/15 08:15:10;;;;;;;0.00;0.00;;;;;;;12.99;58.01;100810.47;5337776;26;20343;-85
2024/04/15 08:17:37;;;;;;;0.40;0.40;;;;;;;12.97;58.79;100801.66;5345194;26;20415;-84
2024/04/15 08:20:03;;;;;;;0.20;0.20;;;;;;;13.05;57.59;100802.28;5343270;26;20032;-83
2024/04/15 08:22:30;;;;;;;0.10;0.10;;;;;;;12.98;57.48;100814.03;5336778;26;20471;-84
2024/04/15 08:24:56;;;;;;;0.00;0.00;;;;;;;13.08;57.41;100783.56;5351902;26;20005;-84
2024/04/15 08:27:22;;;;;;;0.10;0.10;;;;;;;13.18;57.45;100763.72;5345851;26;20001;-84
2024/04/15 08:29:49;;;;;;;0.22;0.22;;;;;;;13.12;57.10;100758.59;5352834;26;20009;-84
2024/04/15 08:32:15;;;;;;;0.10;0.10;;;;;;;13.19;56.70;100764.63;5351947;26;20004;-83
2024/04/15 08:34:41;;;;;;;0.10;0.10;;;;;;;13.06;56.51;100762.34;5348551;26;20000;-83
2024/04/15 08:37:07;;;;;;;1.35;0.90;;;;;;;13.14;56.79;100766.56;5343738;26;20008;-84
2024/04/15 08:39:35;;;;;;;0.10;0.10;;;;;;;13.05;56.70;100749.09;5357226;26;19993;-84
2024/04/15 08:42:28;;;;;;;0.20;0.20;;;;;;;13.22;56.75;100727.25;5353575;26;20012;-82
2024/04/15 08:44:55;;;;;;;0.10;0.10;;;;;;;13.16;56.94;100731.00;5345137;26;20079;-83
2024/04/15 08:47:29;;;;;;;0.10;0.10;;;;;;;13.32;56.57;100703.88;5351618;26;20056;-83
2024/04/15 08:49:57;;;;;;;0.10;0.10;;;;;;;13.11;56.36;100698.38;5341016;26;20591;-81
2024/04/15 08:52:23;;;;;;;0.10;0.10;;;;;;;13.19;56.52;100720.25;5343448;26;20007;-84
2024/04/15 08:54:49;;;;;;;0.10;0.10;;;;;;;13.15;56.13;100689.34;5349378;26;20016;-83
2024/04/15 08:57:17;;;;;;;0.30;0.30;;;;;;;13.10;56.47;100676.19;5348009;26;20001;-83
2024/04/15 08:59:45;;;;;;;1.27;1.17;;;;;;;13.13;55.95;100675.22;5352419;26;20012;-83
2024/04/15 09:02:16;;;;;;;0.03;0.03;;;;;;;13.28;55.80;100665.84;5366591;26;20013;-83
2024/04/15 09:04:43;;;;;;;0.10;0.10;;;;;;;13.20;55.22;100662.59;5349295;26;20012;-83
2024/04/15 09:07:09;;;;;;;0.10;0.10;;;;;;;13.35;54.92;100651.44;5341057;26;20002;-84
2024/04/15 09:09:36;;;;;;;0.10;0.10;;;;;;;13.37;55.09;100644.31;5345680;26;19993;-84
2024/04/15 09:12:02;;;;;;;0.10;0.10;;;;;;;13.51;54.81;100641.16;5341617;26;20000;-84
2024/04/15 09:14:28;;;;;;;0.10;0.10;;;;;;;13.62;54.87;100635.44;5351090;26;19997;-84
2024/04/15 09:16:55;;;;;;;0.10;0.10;;;;;;;13.71;54.85;100618.28;5343476;26;19993;-82
2024/04/15 09:19:23;;;;;;;0.00;0.00;;;;;;;13.69;54.11;100610.31;5343416;26;19997;-85
2024/04/15 09:21:49;;;;;;;0.75;0.75;;;;;;;13.63;53.83;100599.88;5347077;26;20074;-85
2024/04/15 09:24:15;;;;;;;0.25;0.25;;;;;;;13.84;54.21;100592.91;5345929;26;20510;-85
2024/04/15 09:26:41;;;;;;;0.10;0.10;;;;;;;13.88;53.79;100593.66;5347449;26;20009;-84
2024/04/15 09:29:08;;;;;;;0.00;0.00;;;;;;;13.83;53.02;100601.84;5346741;26;20017;-85
2024/04/15 09:31:36;;;;;;;0.10;0.10;;;;;;;13.83;53.27;100584.97;5348353;26;20005;-84
2024/04/15 09:34:02;;;;;;;0.10;0.10;;;;;;;13.68;53.31;100584.63;5338303;26;20001;-84
2024/04/15 09:36:29;;;;;;;0.10;0.10;;;;;;;13.54;54.98;100568.28;5338621;26;20037;-84
2024/04/15 09:38:57;;;;;;;0.10;0.10;;;;;;;13.61;55.78;100555.63;5348382;26;20051;-85
2024/04/15 09:41:23;;;;;;;0.10;0.10;;;;;;;13.56;56.58;100548.69;5348102;26;20011;-85
2024/04/15 09:43:52;;;;;;;0.03;0.03;;;;;;;13.54;56.00;100541.69;5347480;26;19996;-84
2024/04/15 09:46:20;;;;;;;0.25;0.25;;;;;;;13.38;57.29;100536.06;5339759;26;20644;-85
2024/04/15 09:48:48;;;;;;;0.10;0.10;;;;;;;13.24;58.10;100532.06;5348323;26;20004;-85
2024/04/15 09:51:22;;;;;;;0.05;0.05;;;;;;;13.39;58.55;100517.34;5345839;26;20011;-85
2024/04/15 09:53:52;;;;;;;0.08;0.08;;;;;;;13.35;57.99;100514.84;5344577;26;20012;-85
2024/04/15 09:56:41;;;;;;;0.38;0.38;;;;;;;13.39;58.01;100506.72;5345874;26;20001;-84
2024/04/15 09:59:11;;;;;;;0.57;0.57;;;;;;;13.37;58.72;100492.63;5344056;26;20002;-86
2024/04/15 10:01:40;;;;;;;0.10;0.10;;;;;;;13.57;58.10;100497.19;5346971;26;20052;-84
2024/04/15 10:04:18;;;;;;;1.17;1.08;;;;;;;13.62;58.22;100493.47;5342263;26;20013;-84
2024/04/15 10:06:48;;;;;;;0.10;0.10;;;;;;;13.46;58.32;100472.78;5344938;26;20009;-85
2024/04/15 10:09:16;;;;;;;0.00;0.00;;;;;;;13.23;59.36;100470.94;5347125;26;20490;-85
2024/04/15 10:11:44;;;;;;;0.20;0.20;;;;;;;13.20;58.66;100457.75;5347085;26;19993;-85
2024/04/15 10:14:12;;;;;;;0.08;0.08;;;;;;;13.07;59.10;100463.53;5350395;26;19997;-85
2024/04/15 10:16:38;;;;;;;0.10;0.10;;;;;;;12.99;60.02;100454.09;5359647;26;20061;-85
2024/04/15 10:19:04;;;;;;;0.08;0.08;;;;;;;13.01;60.20;100444.25;5368904;26;20005;-84
2024/04/15 10:21:30;;;;;;;0.25;0.25;;;;;;;12.87;60.32;100437.66;5345806;26;20001;-83
2024/04/15 10:23:57;;;;;;;0.05;0.05;;;;;;;12.77;62.39;100446.88;5338893;26;20012;-83
2024/04/15 10:26:26;;;;;;;0.10;0.10;;;;;;;12.81;62.42;100451.19;5344729;26;20007;-84
2024/04/15 10:29:11;;;;;;;0.15;0.15;;;;;;;12.65;62.59;100444.66;5346322;26;20011;-84
2024/04/15 10:31:40;;;;;;;0.00;0.00;;;;;;;12.44;63.27;100474.56;5331342;26;19997;-85
2024/04/15 10:34:06;;;;;;;0.10;0.10;;;;;;;12.25;65.42;100431.81;5337137;26;20020;-85
2024/04/15 10:36:36;;;;;;;0.10;0.10;;;;;;;12.13;65.56;100440.19;5346353;26;20056;-86
2024/04/15 10:39:17;;;;;;;0.20;0.20;;;;;;;11.89;67.37;100433.88;5433558;26;20375;-80
2024/04/15 10:41:45;;;;;;;0.10;0.10;;;;;;;11.76;67.99;100420.09;5442613;26;20033;-83
2024/04/15 10:44:12;;;;;;;0.10;0.10;;;;;;;11.71;67.56;100422.03;5430973;26;20087;-82
2024/04/15 10:46:42;;;;;;;0.10;0.10;;;;;;;11.65;69.70;100394.78;5415488;26;20000;-83
2024/04/15 10:49:08;;;;;;;0.65;0.65;;;;;;;11.72;69.26;100394.59;5420726;26;20000;-83
2024/04/15 10:51:35;;;;;;;0.70;0.70;;;;;;;11.76;69.41;100381.19;5416057;26;20000;-81
2024/04/15 10:54:01;;;;;;;0.20;0.20;;;;;;;11.78;68.97;100375.81;5414140;26;20010;-82
2024/04/15 10:56:28;;;;;;;0.10;0.10;;;;;;;11.76;70.48;100362.59;5425212;26;20022;-81
2024/04/15 10:58:54;;;;;;;0.10;0.10;;;;;;;11.88;69.79;100356.00;5416644;26;20072;-82
2024/04/15 11:01:20;;;;;;;0.10;0.10;;;;;;;12.07;69.75;100336.84;5422398;26;19991;-82
2024/04/15 11:03:47;;;;;;;0.00;0.00;;;;;;;12.12;70.98;100322.50;5409975;26;20062;-82
2024/04/15 11:06:16;;;;;;;1.00;1.00;;;;;;;12.34;70.20;100304.94;5427609;26;20000;-82
2024/04/15 11:08:43;;;;;;;1.88;1.77;;;;;;;12.44;69.61;100288.56;5423051;26;20003;-82
2024/04/15 11:11:10;;;;;;;0.10;0.10;;;;;;;12.55;69.67;100282.03;5426420;26;20006;-83
2024/04/15 11:13:38;;;;;;;0.10;0.10;;;;;;;12.59;68.74;100271.19;5410349;26;20002;-83
2024/04/15 11:16:05;;;;;;;0.00;0.00;;;;;;;12.52;68.66;100268.84;5412735;26;20003;-83
2024/04/15 11:18:31;;;;;;;0.00;0.00;;;;;;;12.49;68.12;100261.00;5410693;26;19999;-82
2024/04/15 11:20:59;;;;;;;0.10;0.10;;;;;;;12.45;67.69;100231.88;5426580;26;20015;-83
2024/04/15 11:23:25;;;;;;;0.00;0.00;;;;;;;12.51;67.58;100225.47;5421798;26;20006;-83